Time;durP1;ratioP1;P1;durP2;ratioP2;P2;SDS_P1;SDS_P2;PMS_P1;PMS_P2;Temp;Humidity;BMP_temperature;BMP_pressure;BME280_temperature;BME280_humidity;BME280_pressure;Samples;Min_cycle;Max_cycle;Signal;HPM_P1;HPM_P2
2021/12/16 00:05:28;;;;;;;6.87;6.00;;;;;;;0.25;75.02;101157.50;1758899;80;21057;-75
2021/12/16 00:07:55;;;;;;;8.60;7.08;;;;;;;0.23;74.89;101152.35;1709165;83;21463;-74
2021/12/16 00:10:37;;;;;;;6.83;6.08;;;;;;;0.23;74.80;101161.89;1734888;81;21047;-74
2021/12/16 00:34:57;;;;;;;9.50;7.40;;;;;;;0.18;74.73;101165.88;1763885;80;20955;-75
2021/12/16 00:37:25;;;;;;;9.03;7.67;;;;;;;0.18;74.79;101172.37;1788677;79;20951;-76
2021/12/16 00:39:51;;;;;;;9.58;8.00;;;;;;;0.18;74.88;101175.42;1758540;79;22490;-76
2021/12/16 00:47:34;;;;;;;9.50;7.47;;;;;;;0.12;75.02;101170.39;1794106;79;21085;-75
2021/12/16 00:50:06;;;;;;;11.50;8.00;;;;;;;0.11;75.19;101168.69;1811654;79;20940;-76
2021/12/16 00:55:25;;;;;;;8.85;7.45;;;;;;;0.10;75.32;101166.98;1793149;79;20941;-75
2021/12/16 00:57:42;;;;;;;9.63;7.12;;;;;;;0.13;75.46;101157.36;1785938;79;21036;-75
2021/12/16 01:00:13;;;;;;;8.03;5.87;;;;;;;0.14;75.52;101150.42;1804114;79;21442;-75
2021/12/16 01:03:11;;;;;;;8.10;5.87;;;;;;;0.14;75.46;101157.77;1805678;79;21079;-75
2021/12/16 01:35:03;;;;;;;5.55;4.47;;;;;;;0.11;75.93;101126.68;1806042;79;20845;-75
2021/12/16 01:38:04;;;;;;;5.62;4.75;;;;;;;0.09;75.93;101126.28;1809062;79;21396;-75
2021/12/16 01:40:20;;;;;;;6.05;4.70;;;;;;;0.08;75.95;101118.09;1787544;79;21563;-75
2021/12/16 01:50:53;;;;;;;5.87;4.62;;;;;;;0.11;76.02;101105.91;1779607;79;21016;-75
2021/12/16 01:53:25;;;;;;;7.67;4.92;;;;;;;0.11;76.04;101104.60;1763811;80;21023;-75
2021/12/16 01:56:03;;;;;;;6.00;4.85;;;;;;;0.14;76.05;101112.75;1779182;79;21020;-75
2021/12/16 01:58:30;;;;;;;6.20;4.40;;;;;;;0.16;75.97;101107.07;1771820;79;21815;-75
2021/12/16 02:01:15;;;;;;;5.95;4.17;;;;;;;0.16;75.97;101101.87;1764048;79;20988;-75
2021/12/16 02:03:44;;;;;;;5.58;4.42;;;;;;;0.15;75.99;101101.02;1787205;79;20980;-75
2021/12/16 02:06:44;;;;;;;6.17;4.85;;;;;;;0.14;76.01;101101.06;1790343;79;21020;-75
2021/12/16 02:08:54;;;;;;;6.08;4.70;;;;;;;0.13;76.11;101098.91;1813934;79;20909;-75
2021/12/16 02:36:12;;;;;;;4.30;3.75;;;;;;;0.02;76.51;101115.22;1782415;79;20971;-74
2021/12/16 02:38:32;;;;;;;4.45;3.70;;;;;;;0.01;76.62;101117.85;1797048;79;21762;-75
2021/12/16 02:40:58;;;;;;;6.05;4.42;;;;;;;0.00;76.64;101123.50;1764317;79;21051;-75
2021/12/16 02:48:42;;;;;;;5.95;4.72;;;;;;;-0.04;76.86;101132.23;1791125;79;21040;-75
2021/12/16 02:51:23;;;;;;;6.03;4.50;;;;;;;-0.04;76.94;101131.78;1773132;79;21833;-75
2021/12/16 02:53:54;;;;;;;5.90;4.62;;;;;;;-0.04;77.04;101140.88;1765188;79;21116;-75
2021/12/16 02:56:20;;;;;;;5.92;4.80;;;;;;;-0.02;77.16;101140.38;1779761;79;21435;-75
2021/12/16 02:58:55;;;;;;;6.08;4.42;;;;;;;-0.03;77.22;101137.38;1777971;80;21046;-74
2021/12/16 03:01:30;;;;;;;7.60;4.95;;;;;;;-0.04;77.32;101138.27;1794641;79;21141;-74
2021/12/16 03:03:59;;;;;;;5.92;4.45;;;;;;;-0.01;77.42;101146.43;1778019;80;21808;-74
2021/12/16 03:06:28;;;;;;;5.62;4.60;;;;;;;-0.01;77.50;101147.73;1778518;79;21455;-75
2021/12/16 03:08:57;;;;;;;5.80;4.22;;;;;;;-0.03;77.52;101147.77;1807445;79;21456;-75
2021/12/16 03:11:41;;;;;;;4.65;3.70;;;;;;;-0.05;77.59;101144.36;1798704;79;21000;-76
2021/12/16 03:14:24;;;;;;;5.25;4.00;;;;;;;-0.06;77.62;101144.41;1760808;79;20965;-76
2021/12/16 03:22:04;;;;;;;4.58;3.77;;;;;;;-0.03;77.76;101138.68;1810096;79;20988;-76
2021/12/16 03:25:00;;;;;;;4.78;3.50;;;;;;;-0.01;77.72;101140.79;1773277;79;21086;-76
2021/12/16 03:27:39;;;;;;;4.47;3.42;;;;;;;0.01;77.71;101147.27;1763652;80;20934;-74
2021/12/16 03:38:04;;;;;;;2.83;1.90;;;;;;;-0.05;77.21;101137.87;1727664;83;21490;-75
2021/12/16 03:40:31;;;;;;;1.77;1.67;;;;;;;-0.07;77.19;101136.20;1700892;82;21061;-75
2021/12/16 03:43:09;;;;;;;2.27;1.92;;;;;;;-0.04;77.27;101131.78;1720258;81;22631;-75
2021/12/16 03:49:10;;;;;;;2.33;1.72;;;;;;;0.01;77.21;101135.59;1709920;82;21004;-75
2021/12/16 03:51:56;;;;;;;2.10;1.50;;;;;;;0.01;77.06;101128.24;1724045;82;21348;-75
2021/12/16 03:54:32;;;;;;;3.45;1.75;;;;;;;0.03;77.10;101127.30;1707857;83;20991;-74
2021/12/16 03:57:03;;;;;;;1.60;1.40;;;;;;;0.03;76.96;101119.96;1714186;82;21771;-74
2021/12/16 03:59:32;;;;;;;2.02;1.52;;;;;;;0.00;76.96;101123.50;1717748;83;21016;-75
2021/12/16 04:02:04;;;;;;;2.00;1.50;;;;;;;-0.01;76.96;101118.72;1716789;83;20904;-75
2021/12/16 04:04:33;;;;;;;2.05;1.50;;;;;;;0.02;77.04;101119.55;1722759;82;20988;-75
2021/12/16 04:07:01;;;;;;;1.85;1.30;;;;;;;0.04;77.00;101115.17;1736739;82;21056;-76
2021/12/16 04:09:27;;;;;;;2.72;1.50;;;;;;;0.05;77.00;101107.34;1722056;82;22472;-75
2021/12/16 04:12:03;;;;;;;1.92;1.52;;;;;;;0.02;77.00;101100.93;1745788;80;20992;-76
2021/12/16 04:14:24;;;;;;;1.82;1.62;;;;;;;0.01;77.09;101090.58;1725032;82;21038;-74
2021/12/16 04:16:54;;;;;;;1.85;1.40;;;;;;;0.04;77.15;101091.80;1724461;81;21479;-74
2021/12/16 04:19:26;;;;;;;2.22;1.50;;;;;;;0.06;77.17;101097.80;1692913;83;21018;-75
2021/12/16 04:22:01;;;;;;;1.60;1.40;;;;;;;0.07;77.17;101096.46;1718275;83;21834;-75
2021/12/16 04:24:29;;;;;;;1.85;1.60;;;;;;;0.09;77.24;101094.67;1718359;82;21040;-75
2021/12/16 04:26:56;;;;;;;1.90;1.47;;;;;;;0.14;77.27;101091.98;1717781;83;20961;-74
2021/12/16 04:29:24;;;;;;;2.67;2.25;;;;;;;0.15;77.32;101093.68;1718053;83;21447;-77
2021/12/16 04:31:52;;;;;;;3.05;2.67;;;;;;;0.16;77.34;101091.48;1715449;82;21109;-75
2021/12/16 04:34:19;;;;;;;2.60;2.20;;;;;;;0.17;77.35;101086.69;1776840;80;21839;-74
2021/12/16 04:36:45;;;;;;;2.52;1.80;;;;;;;0.19;77.39;101083.19;1714987;82;21449;-74
2021/12/16 04:39:17;;;;;;;2.17;1.98;;;;;;;0.22;77.39;101086.15;1732299;81;20980;-74
2021/12/16 04:41:45;;;;;;;2.50;2.15;;;;;;;0.23;77.39;101087.41;1740436;81;20960;-74
2021/12/16 04:44:14;;;;;;;2.17;1.98;;;;;;;0.23;77.40;101086.55;1718154;82;21556;-75
2021/12/16 04:46:42;;;;;;;3.12;2.08;;;;;;;0.24;77.48;101086.51;1738452;81;22476;-74
2021/12/16 04:49:09;;;;;;;2.20;2.00;;;;;;;0.26;77.51;101091.66;1791300;79;21071;-77
2021/12/16 04:51:41;;;;;;;1.70;1.52;;;;;;;0.26;77.50;101088.61;1761169;79;21017;-75
2021/12/16 04:54:08;;;;;;;2.15;1.70;;;;;;;0.27;77.44;101092.91;1791118;79;21450;-74
2021/12/16 04:56:36;;;;;;;2.58;1.60;;;;;;;0.29;77.44;101090.30;1738269;80;21004;-73
2021/12/16 04:59:08;;;;;;;1.80;1.50;;;;;;;0.29;77.40;101091.60;1738338;80;23818;-74
2021/12/16 05:01:38;;;;;;;2.00;1.70;;;;;;;0.27;77.44;101086.42;1683456;84;21006;-72
2021/12/16 05:04:05;;;;;;;3.08;2.00;;;;;;;0.29;77.40;101094.20;1741306;80;20967;-76
2021/12/16 05:06:33;;;;;;;4.05;2.95;;;;;;;0.30;77.46;101088.55;1735882;82;20995;-77
2021/12/16 05:08:59;;;;;;;2.58;2.10;;;;;;;0.30;77.44;101085.52;1764489;79;21023;-79
2021/12/16 05:11:29;;;;;;;3.20;2.17;;;;;;;0.29;77.31;101085.11;1767779;79;22653;-74
2021/12/16 05:13:58;;;;;;;7.55;4.65;;;;;;;0.26;77.27;101083.41;1746702;80;20941;-78
2021/12/16 05:16:25;;;;;;;9.85;6.03;;;;;;;0.25;77.26;101082.16;1737760;82;21497;-76
2021/12/16 05:18:54;;;;;;;11.88;8.05;;;;;;;0.22;77.24;101081.80;1737994;81;21405;-76
2021/12/16 05:24:17;;;;;;;5.42;3.37;;;;;;;0.21;77.24;101088.34;1738078;82;21773;-78
2021/12/16 05:26:42;;;;;;;3.40;2.70;;;;;;;0.16;77.38;101096.23;1737088;82;25504;-81
2021/12/16 05:29:10;;;;;;;3.58;2.90;;;;;;;0.13;77.46;101092.88;1733973;80;21049;-80
2021/12/16 05:31:37;;;;;;;5.85;4.45;;;;;;;0.12;77.55;101092.47;1737495;82;21011;-78
2021/12/16 05:34:05;;;;;;;6.70;4.50;;;;;;;0.11;77.56;101079.92;1745581;80;20955;-79
2021/12/16 05:36:34;;;;;;;8.95;6.67;;;;;;;0.12;77.59;101082.92;1734096;81;21881;-80
2021/12/16 05:39:00;;;;;;;8.93;6.75;;;;;;;0.14;77.56;101080.28;1730069;82;21499;-80
2021/12/16 05:41:29;;;;;;;12.35;8.73;;;;;;;0.14;77.56;101072.49;1747336;81;21059;-78
2021/12/16 05:43:56;;;;;;;9.45;7.05;;;;;;;0.13;77.65;101080.73;1746111;81;21000;-81
2021/12/16 05:46:24;;;;;;;6.70;4.95;;;;;;;0.12;77.65;101081.63;1750528;81;21091;-78
2021/12/16 05:48:52;;;;;;;5.58;4.62;;;;;;;0.13;77.65;101085.08;1748480;80;21764;-79
2021/12/16 05:51:24;;;;;;;5.60;4.25;;;;;;;0.14;77.64;101088.08;1729376;81;21024;-79
2021/12/16 05:53:51;;;;;;;8.58;6.17;;;;;;;0.15;77.63;101084.59;1736151;82;21080;-81
2021/12/16 05:56:20;;;;;;;4.58;3.20;;;;;;;0.15;77.61;101086.73;1736227;82;21487;-80
2021/12/16 05:58:48;;;;;;;3.98;2.95;;;;;;;0.16;77.57;101087.14;1738727;81;21394;-80
2021/12/16 06:01:25;;;;;;;3.05;2.37;;;;;;;0.13;77.51;101087.23;1705070;82;21840;-82
2021/12/16 06:03:53;;;;;;;3.62;2.87;;;;;;;0.14;77.57;101090.67;1725992;82;21001;-80
2021/12/16 06:06:21;;;;;;;4.40;3.27;;;;;;;0.17;77.64;101086.24;1749243;80;21011;-80
2021/12/16 06:08:48;;;;;;;3.60;3.17;;;;;;;0.19;77.56;101086.20;1740629;81;20977;-79
2021/12/16 06:11:19;;;;;;;5.80;3.70;;;;;;;0.18;77.52;101085.34;1732839;80;20957;-81
2021/12/16 06:14:00;;;;;;;11.83;7.28;;;;;;;0.18;77.52;101095.74;1738832;79;22218;-81
2021/12/16 06:22:47;;;;;;;13.45;6.75;;;;;;;0.20;77.47;101097.03;1720675;82;21581;-79
2021/12/16 06:27:10;;;;;;;10.75;5.92;;;;;;;0.21;77.48;101090.94;1778537;79;21893;-81
2021/12/16 06:29:36;;;;;;;8.03;4.70;;;;;;;0.18;77.47;101085.80;1777682;80;21000;-81
2021/12/16 06:32:03;;;;;;;13.50;5.95;;;;;;;0.16;77.52;101079.80;1753233;81;20993;-80
2021/12/16 06:34:29;;;;;;;9.63;4.83;;;;;;;0.13;77.48;101084.63;1772464;79;21102;-80
2021/12/16 06:36:56;;;;;;;9.28;4.80;;;;;;;0.13;77.57;101081.18;1786395;79;20972;-80
2021/12/16 06:39:22;;;;;;;7.60;4.70;;;;;;;0.14;77.64;101077.69;1775724;79;21788;-83
2021/12/16 06:42:08;;;;;;;6.30;3.92;;;;;;;0.15;77.65;101081.54;1775867;79;20933;-80
2021/12/16 06:44:45;;;;;;;7.00;3.80;;;;;;;0.17;77.66;101081.50;1776327;80;20949;-81
2021/12/16 06:47:13;;;;;;;6.37;4.17;;;;;;;0.15;77.66;101081.98;1791019;79;20993;-80
2021/12/16 06:49:39;;;;;;;7.80;4.80;;;;;;;0.15;77.69;101083.29;1779759;79;20940;-81
2021/12/16 06:52:07;;;;;;;8.10;4.55;;;;;;;0.16;77.78;101081.95;1786788;79;22609;-80
2021/12/16 06:54:53;;;;;;;6.22;4.33;;;;;;;0.19;77.82;101092.70;1809980;79;21407;-82
2021/12/16 07:00:03;;;;;;;6.20;4.40;;;;;;;0.26;77.87;101091.66;1800891;79;21041;-81
2021/12/16 07:05:06;;;;;;;6.22;4.58;;;;;;;0.27;77.82;101085.13;1737253;80;21849;-82
2021/12/16 07:07:34;;;;;;;5.92;4.30;;;;;;;0.30;77.87;101091.16;1711135;82;21002;-77
2021/12/16 07:10:04;;;;;;;6.47;4.70;;;;;;;0.32;77.92;101096.71;1705376;83;21065;-75
2021/12/16 07:12:36;;;;;;;6.10;4.28;;;;;;;0.33;77.89;101101.45;1740002;80;20991;-84
2021/12/16 07:15:07;;;;;;;7.75;4.80;;;;;;;0.31;77.88;101104.10;1753650;80;20959;-81
2021/12/16 07:17:33;;;;;;;6.33;4.45;;;;;;;0.27;77.92;101101.16;1743117;82;21793;-80
2021/12/16 07:20:00;;;;;;;6.20;3.92;;;;;;;0.28;77.95;101102.41;1763885;79;21043;-80
2021/12/16 07:22:26;;;;;;;6.25;4.50;;;;;;;0.30;77.99;101101.10;1784377;80;20999;-83
2021/12/16 07:24:52;;;;;;;7.50;5.20;;;;;;;0.30;77.98;101099.80;1776283;80;20977;-78
2021/12/16 07:27:19;;;;;;;8.13;4.78;;;;;;;0.30;78.01;101095.91;1788430;80;21082;-81
2021/12/16 07:29:45;;;;;;;9.50;6.05;;;;;;;0.31;78.05;101095.45;1731644;81;21807;-79
2021/12/16 07:32:12;;;;;;;12.03;7.30;;;;;;;0.29;78.09;101086.41;1786680;80;20996;-78
2021/12/16 07:34:38;;;;;;;11.63;7.03;;;;;;;0.31;78.13;101076.81;1765462;79;20973;-79
2021/12/16 07:37:06;;;;;;;16.70;8.48;;;;;;;0.34;78.19;101072.83;1732755;82;21463;-79
2021/12/16 07:39:38;;;;;;;13.50;8.20;;;;;;;0.37;78.22;101071.44;1748890;81;21013;-80
2021/12/16 07:42:01;;;;;;;12.05;7.78;;;;;;;0.39;78.24;101077.92;1773819;80;21831;-83
2021/12/16 07:44:29;;;;;;;11.18;6.40;;;;;;;0.38;78.23;101081.39;1763186;81;21076;-76
2021/12/16 07:46:59;;;;;;;10.48;6.08;;;;;;;0.39;78.27;101078.78;1760886;81;21581;-76
2021/12/16 07:49:29;;;;;;;9.00;5.60;;;;;;;0.39;78.27;101080.08;1765222;81;20968;-75
2021/12/16 07:51:56;;;;;;;8.60;6.15;;;;;;;0.38;78.31;101076.19;1765551;81;20959;-79
2021/12/16 07:54:24;;;;;;;8.88;6.50;;;;;;;0.36;78.35;101080.13;1770290;79;22218;-84
2021/12/16 07:56:53;;;;;;;10.85;7.55;;;;;;;0.37;78.44;101080.53;1753818;81;20988;-87
2021/12/16 07:59:20;;;;;;;11.33;7.97;;;;;;;0.41;78.49;101069.19;1766278;80;21016;-83
2021/12/16 08:01:47;;;;;;;12.37;9.10;;;;;;;0.44;78.53;101074.74;1777607;80;20980;-82
2021/12/16 08:04:20;;;;;;;13.95;10.00;;;;;;;0.46;78.52;101077.70;1779695;80;21541;-81
2021/12/16 08:06:43;;;;;;;15.68;10.98;;;;;;;0.46;78.53;101081.59;1762133;79;23152;-82
2021/12/16 08:09:10;;;;;;;14.30;10.18;;;;;;;0.46;78.49;101075.55;1753714;81;21450;-81
2021/12/16 08:11:39;;;;;;;15.65;10.98;;;;;;;0.45;78.51;101073.39;1759843;80;21027;-82
2021/12/16 08:14:05;;;;;;;13.78;9.85;;;;;;;0.44;78.52;101071.70;1785184;80;21438;-81
2021/12/16 08:16:32;;;;;;;13.58;9.50;;;;;;;0.44;78.53;101067.80;1742168;81;21008;-81
2021/12/16 08:18:59;;;;;;;14.23;9.48;;;;;;;0.44;78.58;101066.50;1782962;78;21827;-81
2021/12/16 08:21:28;;;;;;;15.25;10.00;;;;;;;0.47;78.66;101056.01;1786360;79;21170;-83
2021/12/16 08:23:55;;;;;;;14.23;10.08;;;;;;;0.51;78.69;101052.45;1778227;80;20950;-82
2021/12/16 08:26:22;;;;;;;13.58;9.33;;;;;;;0.53;78.65;101046.76;1779596;80;20976;-82
2021/12/16 08:28:49;;;;;;;15.18;9.85;;;;;;;0.54;78.66;101039.81;1784833;79;21048;-81
2021/12/16 08:31:16;;;;;;;13.72;9.65;;;;;;;0.54;78.70;101039.36;1756266;80;21842;-84
2021/12/16 08:33:43;;;;;;;15.28;9.68;;;;;;;0.60;78.72;101040.10;1763690;79;21035;-83
2021/12/16 08:36:09;;;;;;;14.43;10.45;;;;;;;0.61;78.71;101027.06;1772950;80;21031;-84
2021/12/16 08:38:37;;;;;;;16.60;10.90;;;;;;;0.63;78.70;101027.86;1773719;79;20949;-81
2021/12/16 08:41:11;;;;;;;16.10;10.40;;;;;;;0.66;78.79;101026.47;1773406;81;21007;-82
2021/12/16 08:43:44;;;;;;;18.73;12.40;;;;;;;0.71;78.81;101017.25;1780952;79;21825;-78
2021/12/16 08:46:12;;;;;;;19.15;12.05;;;;;;;0.72;78.72;101019.80;1746925;80;20932;-79
2021/12/16 08:48:39;;;;;;;16.12;10.48;;;;;;;0.75;78.67;101031.86;1786420;80;21000;-80
2021/12/16 08:51:06;;;;;;;16.20;10.63;;;;;;;0.76;78.67;101026.61;1798448;79;20949;-80
2021/12/16 08:53:32;;;;;;;21.10;12.60;;;;;;;0.78;78.69;101023.54;1788679;79;21059;-80
2021/12/16 08:55:59;;;;;;;20.52;13.00;;;;;;;0.78;78.58;101009.69;1785204;80;22194;-80
2021/12/16 08:58:26;;;;;;;23.18;14.30;;;;;;;0.77;78.55;101007.53;1780911;79;21009;-80
2021/12/16 09:01:01;;;;;;;22.27;13.53;;;;;;;0.77;78.57;101001.45;1789310;80;20981;-79
2021/12/16 09:03:30;;;;;;;23.47;15.03;;;;;;;0.77;78.59;100989.75;1784981;80;20960;-79
2021/12/16 09:05:58;;;;;;;24.85;15.25;;;;;;;0.78;78.61;100980.63;1786476;79;20980;-83
2021/12/16 09:08:24;;;;;;;21.75;13.60;;;;;;;0.83;78.65;100977.44;1785843;80;22228;-81
2021/12/16 09:10:54;;;;;;;23.85;15.15;;;;;;;0.84;78.60;100971.78;1774353;80;21055;-83
2021/12/16 09:13:21;;;;;;;24.87;15.40;;;;;;;0.83;78.61;100970.94;1768273;81;21483;-81
2021/12/16 09:15:55;;;;;;;27.85;16.35;;;;;;;0.84;78.60;100971.78;1773675;80;20941;-82
2021/12/16 09:18:25;;;;;;;27.05;18.17;;;;;;;0.83;78.60;100967.03;1780881;78;21020;-78
2021/12/16 09:20:53;;;;;;;24.20;14.95;;;;;;;0.84;78.67;100959.63;1774012;80;21752;-77
2021/12/16 09:23:21;;;;;;;21.95;13.25;;;;;;;0.88;78.68;100963.02;1778721;80;21044;-82
2021/12/16 09:25:48;;;;;;;25.57;16.27;;;;;;;0.91;78.75;100960.31;1778247;80;21411;-78
2021/12/16 09:28:15;;;;;;;22.85;14.00;;;;;;;0.97;78.77;100961.88;1782993;79;20945;-80
2021/12/16 09:30:44;;;;;;;24.37;15.58;;;;;;;1.04;78.83;100947.77;1778538;80;20976;-79
2021/12/16 09:33:16;;;;;;;21.37;13.32;;;;;;;1.08;78.81;100950.25;1773814;80;22250;-83
2021/12/16 09:35:48;;;;;;;23.25;15.35;;;;;;;1.12;78.75;100940.12;1734679;81;20996;-84
2021/12/16 09:38:15;;;;;;;24.82;15.30;;;;;;;1.13;78.61;100939.23;1735783;82;20943;-80
2021/12/16 09:40:49;;;;;;;29.82;16.60;;;;;;;1.15;78.63;100937.88;1735360;82;21001;-79
2021/12/16 09:43:12;;;;;;;23.95;16.10;;;;;;;1.17;78.67;100934.80;1737812;81;21000;-79
2021/12/16 09:45:39;;;;;;;28.83;18.00;;;;;;;1.22;78.68;100934.19;1737199;81;21796;-81
2021/12/16 09:48:05;;;;;;;18.87;13.20;;;;;;;1.23;78.51;100929.38;1737666;81;21014;-82
2021/12/16 09:50:32;;;;;;;18.20;12.40;;;;;;;1.25;78.46;100926.27;1736178;82;20965;-79
2021/12/16 09:52:59;;;;;;;15.63;10.90;;;;;;;1.26;78.44;100928.45;1728476;82;21000;-79
2021/12/16 09:55:28;;;;;;;17.87;11.70;;;;;;;1.31;78.37;100924.78;1734716;82;21402;-79
2021/12/16 09:57:55;;;;;;;16.45;11.80;;;;;;;1.29;78.21;100920.54;1739924;82;22507;-82
2021/12/16 10:00:26;;;;;;;14.68;10.65;;;;;;;1.32;78.25;100919.98;1740717;82;20889;-75
2021/12/16 10:02:54;;;;;;;15.32;10.63;;;;;;;1.34;78.19;100914.72;1740513;82;20985;-81
2021/12/16 10:05:22;;;;;;;16.67;11.90;;;;;;;1.33;78.00;100906.52;1730765;82;21506;-80
2021/12/16 10:07:48;;;;;;;17.52;11.55;;;;;;;1.34;78.01;100901.70;1738778;82;20945;-87
2021/12/16 10:10:20;;;;;;;15.65;10.30;;;;;;;1.36;78.00;100899.92;1736336;82;21865;-81
2021/12/16 10:12:50;;;;;;;16.70;10.25;;;;;;;1.37;77.85;100895.12;1736811;81;20937;-81
2021/12/16 10:18:15;;;;;;;17.15;12.70;;;;;;;1.35;77.76;100894.30;1661385;85;39822;-81
2021/12/16 10:20:51;;;;;;;14.60;9.85;;;;;;;1.42;77.74;100890.59;1693488;84;21027;-84
2021/12/16 10:23:25;;;;;;;14.10;10.60;;;;;;;1.48;77.61;100884.34;1728118;82;22231;-81
2021/12/16 10:26:04;;;;;;;13.75;9.80;;;;;;;1.47;77.56;100878.74;1755486;80;21067;-75
2021/12/16 10:28:41;;;;;;;16.82;10.75;;;;;;;1.49;77.58;100876.93;1707555;83;21017;-74
2021/12/16 10:31:20;;;;;;;14.95;9.93;;;;;;;1.50;77.52;100876.88;1693533;83;21416;-75
2021/12/16 10:34:03;;;;;;;15.15;10.20;;;;;;;1.49;77.43;100867.37;1717650;83;21014;-78
2021/12/16 10:36:39;;;;;;;12.47;9.28;;;;;;;1.50;77.42;100863.02;1766119;81;21858;-76
2021/12/16 10:39:17;;;;;;;15.10;10.35;;;;;;;1.48;77.27;100860.47;1723611;81;20907;-77
2021/12/16 10:41:52;;;;;;;14.87;10.38;;;;;;;1.47;77.13;100852.72;1744408;80;21442;-76
2021/12/16 10:44:32;;;;;;;15.55;10.72;;;;;;;1.47;77.07;100860.52;1739376;80;21098;-76
2021/12/16 10:47:06;;;;;;;17.73;11.43;;;;;;;1.49;77.13;100854.80;1749995;80;21419;-76
2021/12/16 10:49:49;;;;;;;17.85;11.60;;;;;;;1.53;77.08;100843.37;1742422;82;21836;-76
2021/12/16 10:52:26;;;;;;;18.17;11.70;;;;;;;1.55;77.05;100841.14;1747822;82;20989;-76
2021/12/16 10:54:52;;;;;;;17.07;11.80;;;;;;;1.57;76.97;100825.00;1738450;82;21463;-76
2021/12/16 10:57:25;;;;;;;16.37;11.50;;;;;;;1.60;76.94;100834.00;1735410;82;21013;-76
2021/12/16 11:00:08;;;;;;;16.37;11.17;;;;;;;1.65;76.95;100822.98;1730522;83;21021;-77
2021/12/16 11:02:37;;;;;;;16.95;11.85;;;;;;;1.67;76.72;100821.17;1736559;82;22658;-76
2021/12/16 11:05:08;;;;;;;17.02;11.75;;;;;;;1.67;76.69;100824.23;1745478;81;20997;-78
2021/12/16 11:07:42;;;;;;;16.90;11.53;;;;;;;1.70;76.67;100824.95;1737029;82;21036;-78
2021/12/16 11:10:21;;;;;;;15.80;11.68;;;;;;;1.71;76.52;100812.78;1738779;82;21092;-77
2021/12/16 11:12:59;;;;;;;15.20;10.50;;;;;;;1.71;76.31;100811.48;1738195;81;21051;-77
2021/12/16 11:15:37;;;;;;;17.50;11.38;;;;;;;1.70;76.02;100810.63;1746547;80;20977;-77
2021/12/16 11:18:22;;;;;;;17.95;12.00;;;;;;;1.69;75.90;100811.55;1751787;82;20945;-77
2021/12/16 11:20:58;;;;;;;19.15;12.53;;;;;;;1.68;75.89;100807.70;1730430;80;21371;-77
2021/12/16 11:23:40;;;;;;;16.35;11.35;;;;;;;1.69;75.95;100811.55;1753508;81;21000;-78
2021/12/16 11:26:18;;;;;;;18.15;11.93;;;;;;;1.70;75.90;100816.30;1734686;82;21418;-78
2021/12/16 11:28:51;;;;;;;19.57;12.63;;;;;;;1.70;75.93;100812.39;1732476;82;21938;-78
2021/12/16 11:31:24;;;;;;;16.70;11.43;;;;;;;1.72;75.96;100802.31;1726779;81;21443;-75
2021/12/16 11:33:58;;;;;;;17.23;12.25;;;;;;;1.73;75.88;100801.41;1728429;81;21072;-79
2021/12/16 11:36:35;;;;;;;18.02;12.15;;;;;;;1.76;75.92;100800.92;1719714;81;21036;-77
2021/12/16 11:39:16;;;;;;;20.15;12.98;;;;;;;1.75;75.76;100805.73;1699022;84;21478;-75
2021/12/16 11:41:51;;;;;;;17.95;11.70;;;;;;;1.73;75.80;100794.04;1708252;81;21857;-76
2021/12/16 11:44:26;;;;;;;20.97;12.30;;;;;;;1.77;75.96;100797.41;1741729;82;20957;-78
2021/12/16 11:46:59;;;;;;;18.57;12.03;;;;;;;1.80;75.82;100795.53;1716109;82;20985;-77
2021/12/16 11:49:38;;;;;;;18.42;11.63;;;;;;;1.82;75.77;100799.37;1740384;82;20956;-77
2021/12/16 11:52:09;;;;;;;16.85;12.18;;;;;;;1.81;75.67;100785.95;1713042;82;21035;-79
2021/12/16 11:54:55;;;;;;;18.05;11.53;;;;;;;1.82;75.70;100787.66;1707763;82;21883;-79
2021/12/16 11:57:35;;;;;;;17.12;10.98;;;;;;;1.81;75.43;100784.66;1736386;81;20996;-77
2021/12/16 12:00:24;;;;;;;19.23;11.25;;;;;;;1.80;75.44;100779.91;1709176;84;21474;-78
2021/12/16 12:03:00;;;;;;;19.92;12.37;;;;;;;1.80;75.31;100781.66;1738564;82;21048;-77
2021/12/16 12:05:45;;;;;;;18.32;10.68;;;;;;;1.81;75.33;100779.45;1692722;83;20980;-78
2021/12/16 12:08:23;;;;;;;21.23;11.57;;;;;;;1.82;75.24;100774.62;1714239;82;21863;-79
2021/12/16 12:11:06;;;;;;;19.30;12.65;;;;;;;1.84;75.27;100765.87;1698520;84;21011;-80
2021/12/16 12:13:54;;;;;;;19.62;12.50;;;;;;;1.88;75.30;100760.94;1712565;82;21515;-80
2021/12/16 12:16:26;;;;;;;18.25;11.28;;;;;;;1.91;75.21;100749.55;1709018;83;21069;-79
2021/12/16 12:19:17;;;;;;;18.15;12.33;;;;;;;1.95;75.15;100748.54;1734278;82;21013;-79
2021/12/16 12:22:00;;;;;;;18.40;12.28;;;;;;;1.95;75.19;100743.33;1739262;82;22241;-78
2021/12/16 12:24:34;;;;;;;18.10;11.80;;;;;;;1.98;75.19;100745.81;1707749;83;21008;-79
2021/12/16 12:27:11;;;;;;;17.60;11.35;;;;;;;2.00;75.27;100739.63;1726209;82;21064;-79
2021/12/16 12:29:46;;;;;;;18.92;11.65;;;;;;;2.03;75.16;100747.80;1720556;83;20960;-80
2021/12/16 12:32:19;;;;;;;19.87;12.18;;;;;;;2.02;75.02;100736.95;1719309;83;21455;-81
2021/12/16 12:34:50;;;;;;;17.95;11.43;;;;;;;2.02;75.01;100731.74;1742038;81;21852;-78
2021/12/16 12:37:19;;;;;;;16.75;11.80;;;;;;;2.04;75.03;100731.26;1734399;81;21428;-79
2021/12/16 12:39:50;;;;;;;18.37;11.63;;;;;;;2.07;75.00;100731.59;1728054;81;20961;-79
2021/12/16 12:42:17;;;;;;;15.72;10.78;;;;;;;2.06;74.96;100719.02;1727249;82;21089;-80
2021/12/16 12:44:46;;;;;;;17.80;11.95;;;;;;;2.05;74.85;100718.63;1720122;83;20973;-80
2021/12/16 12:47:18;;;;;;;21.45;13.58;;;;;;;2.00;74.88;100718.78;1720384;83;21809;-79
2021/12/16 12:49:45;;;;;;;19.82;12.33;;;;;;;1.98;74.94;100717.16;1721757;83;20945;-80
2021/12/16 12:52:17;;;;;;;18.15;11.57;;;;;;;1.96;75.04;100715.06;1720579;81;21067;-79
2021/12/16 12:55:00;;;;;;;18.73;11.57;;;;;;;1.96;75.13;100712.46;1738658;80;21060;-79
2021/12/16 12:57:33;;;;;;;19.90;12.40;;;;;;;1.97;75.25;100712.85;1738418;81;21577;-79
2021/12/16 13:00:00;;;;;;;20.37;12.98;;;;;;;1.97;75.22;100706.34;1750827;80;22501;-82
2021/12/16 13:02:34;;;;;;;18.07;11.57;;;;;;;1.96;75.27;100713.31;1730444;82;21461;-76
2021/12/16 13:05:20;;;;;;;;;;;;;;;1.95;75.30;100706.86;1739865;82;21493;-80
2021/12/16 13:08:02;;;;;;;20.17;13.28;;;;;;;1.94;75.35;100715.59;1749179;80;20667;-79
2021/12/16 13:10:38;;;;;;;22.35;13.48;;;;;;;1.91;75.42;100720.44;1745480;80;21499;-84
2021/12/16 13:27:39;;;;;;;24.52;15.20;;;;;;;1.99;75.66;100701.91;1792667;79;22772;-79
2021/12/16 13:30:23;;;;;;;20.32;13.08;;;;;;;1.99;75.72;100701.91;1796826;79;20941;-79
2021/12/16 13:33:24;;;;;;;22.45;14.35;;;;;;;2.01;75.77;100702.70;1795678;79;20937;-76
2021/12/16 13:35:51;;;;;;;20.92;13.32;;;;;;;2.01;75.70;100700.94;1790449;79;21291;-79
2021/12/16 13:38:19;;;;;;;;;;;;;;;2.03;75.75;100693.52;1793526;80;20952;-78
2021/12/16 13:40:47;;;;;;;22.85;13.38;;;;;;;2.02;75.73;100692.67;1791127;80;21450;-77
2021/12/16 13:43:25;;;;;;;22.02;13.65;;;;;;;2.00;75.74;100693.19;1791711;79;20984;-76
2021/12/16 13:46:27;;;;;;;32.10;20.35;;;;;;;1.98;75.81;100685.89;1792146;80;21013;-76
2021/12/16 13:48:57;;;;;;;37.58;25.05;;;;;;;1.95;75.79;100675.14;1773796;80;21097;-78
2021/12/16 14:00:51;;;;;;;40.05;22.05;;;;;;;1.91;75.97;100656.63;1792784;78;20991;-73
2021/12/16 14:05:24;;;;;;;25.50;14.05;;;;;;;1.89;76.11;100660.20;1765779;79;20996;-72
2021/12/16 14:08:03;;;;;;;27.70;15.40;;;;;;;1.87;76.19;100647.24;1742229;80;21789;-71
2021/12/16 14:10:47;;;;;;;26.23;15.55;;;;;;;1.88;76.28;100652.00;1790851;80;21034;-73
2021/12/16 14:37:16;;;;;;;26.77;15.72;;;;;;;1.67;77.42;100632.39;1720293;83;21861;-73
2021/12/16 14:50:25;;;;;;;37.53;19.42;;;;;;;1.85;77.51;100620.88;1739346;82;22617;-74
2021/12/16 14:52:52;;;;;;;31.37;17.90;;;;;;;1.85;77.56;100625.62;1742965;81;21537;-74
2021/12/16 14:55:19;;;;;;;38.65;22.77;;;;;;;1.84;77.68;100617.88;1769867;81;20977;-74
2021/12/16 14:57:53;;;;;;;38.33;22.07;;;;;;;1.83;77.74;100619.60;1769648;81;21485;-75
2021/12/16 15:00:37;;;;;;;32.53;18.82;;;;;;;1.82;77.81;100618.37;1769974;81;21008;-73
2021/12/16 15:03:13;;;;;;;30.85;17.77;;;;;;;1.84;77.90;100620.48;1769444;81;21827;-73